Terminal Aerodrome Forecast
Issued by NWS

Home | Current Version | Previous Version | Text Only | Print | Product List | Glossary On
Versions: 1 2 3 4 5 6 7 8 9 10 11 12 13 14 15 16 17 18 19
000
FTUS42 KFFC 210500
TAFFTY
TAF
KFTY 210522Z 2106/2206 00000KT P6SM FEW250
     FM211500 19006KT P6SM FEW050 SCT120
     FM211700 26006KT P6SM FEW050 SCT120
     FM220300 23004KT P6SM SCT050 BKN120=

USA.gov is the U.S. government's official web portal to all federal, state and local government web resources and services.